»·PEaware :: N630CM KSBP-KBFL

N630CM :: KSBP-KBFL

FLIGHT INFORMATION

Flight Status: Arrived
Operator: Privately registered:
United States
More flights under this callsign
Pilot: Tim A. (5004)
Aircraft: BEECH AIRCRAFT DEBONAIR BONANZA
(BE33)
More flights by this aircraft type
Origin: KSBP San Luis Co Regl
United States
Destination: KBFL Meadows
United States
More flights between these airports :: More routes between these airports
Route: +EHF
File this flight plan on PilotEdge
Remarks:
Altitude:
(Current/Filed)
3,500ft
Speed:
(Current/Filed)
190kts
Departed: 12-May-18 05:23 PM
Arrived: 12-May-18 06:02 PM
Distance/Time
Traveled:
79nm/0:38
Distance/Time
To Go:
Arrived

Flight Plot

Page will automatically refresh every two minutes.

Flight plan parsing failed; only flown route is shown


Map Options




Map Legend


Flown Route
Filed Route
Departure Airport
Arrival Airport
Navaid (VOR, NDB)
Fix

Horizontal Profiles

Position Reports

Time Latitude Longitude Heading Altitude Ground
Speed
12-May-18 17:12 35.237866 -120.646004 178 170ft 0kts
12-May-18 17:13 35.237866 -120.646004 178 170ft 0kts
12-May-18 17:14 35.237866 -120.646003 178 170ft 0kts
12-May-18 17:15 35.237866 -120.646003 178 170ft 0kts
12-May-18 17:16 35.237866 -120.646003 178 170ft 0kts
12-May-18 17:17 35.237866 -120.646003 178 170ft 0kts
12-May-18 17:18 35.237866 -120.646003 178 170ft 0kts
12-May-18 17:19 35.237866 -120.646003 178 170ft 0kts
12-May-18 17:20 35.237418 -120.645585 90 172ft 12kts
12-May-18 17:21 35.237322 -120.642570 159 182ft 0kts
12-May-18 17:22 35.236890 -120.642919 240 182ft 21kts
12-May-18 17:23 35.233995 -120.664033 187 983ft 79kts
12-May-18 17:24 35.230983 -120.631438 83 2074ft 112kts
12-May-18 17:25 35.238556 -120.592359 82 3153ft 122kts
12-May-18 17:26 35.249780 -120.549258 66 3776ft 154kts
12-May-18 17:27 35.262814 -120.493359 83 3615ft 176kts
12-May-18 17:28 35.271994 -120.434905 79 3614ft 177kts
12-May-18 17:29 35.281728 -120.376469 78 3881ft 163kts
12-May-18 17:30 35.289601 -120.330908 79 4783ft 143kts
12-May-18 17:31 35.296949 -120.284877 79 5490ft 151kts
12-May-18 17:32 35.305539 -120.230070 78 5508ft 175kts
12-May-18 17:33 35.315184 -120.171567 78 5506ft 178kts
12-May-18 17:34 35.324604 -120.113895 78 5506ft 178kts
12-May-18 17:35 35.334030 -120.055702 78 5506ft 178kts
12-May-18 17:36 35.343532 -119.997847 77 5506ft 178kts
12-May-18 17:37 35.353134 -119.938675 77 5476ft 180kts
12-May-18 17:38 35.362705 -119.878977 76 5443ft 180kts
12-May-18 17:39 35.372122 -119.820002 75 5409ft 180kts
12-May-18 17:40 35.381431 -119.761501 75 5377ft 180kts
12-May-18 17:41 35.388690 -119.702773 105 5351ft 183kts
12-May-18 17:42 35.347507 -119.699009 207 5322ft 174kts
12-May-18 17:43 35.303118 -119.722481 206 4895ft 173kts
12-May-18 17:44 35.260394 -119.744563 206 5240ft 155kts
12-May-18 17:45 35.219428 -119.759017 157 5501ft 172kts
12-May-18 17:46 35.210460 -119.705057 64 5498ft 174kts
12-May-18 17:47 35.230420 -119.650992 61 5416ft 180kts
12-May-18 17:48 35.250839 -119.592638 62 4909ft 189kts
12-May-18 17:49 35.271274 -119.533637 62 4545ft 189kts
12-May-18 17:50 35.291605 -119.474626 62 4218ft 188kts
12-May-18 17:51 35.311833 -119.415794 62 3925ft 188kts
12-May-18 17:52 35.332018 -119.356977 62 3661ft 187kts
12-May-18 17:53 35.351472 -119.300280 63 3509ft 183kts
12-May-18 17:54 35.362335 -119.239702 89 3475ft 185kts
12-May-18 17:55 35.354711 -119.177450 100 3416ft 189kts
12-May-18 17:56 35.347355 -119.114519 84 3123ft 186kts
12-May-18 17:57 35.353127 -119.055423 78 2675ft 157kts
12-May-18 17:58 35.364551 -119.016622 16 1731ft 104kts
12-May-18 17:59 35.389748 -119.012929 344 1668ft 98kts
12-May-18 18:00 35.410337 -119.028142 311 1101ft 75kts
12-May-18 18:01 35.426289 -119.047133 312 697ft 74kts
12-May-18 18:02 35.436457 -119.059044 93 490ft 9kts
12-May-18 18:03 35.434961 -119.055371 134 492ft 22kts
12-May-18 18:04 35.431718 -119.049796 42 496ft 11kts

Navigation Log

Ident Type
Flight plan parsing failed, navigation log unavailable